Time;durP1;ratioP1;P1;durP2;ratioP2;P2;SDS_P1;SDS_P2;PMS_P1;PMS_P2;Temp;Humidity;BMP_temperature;BMP_pressure;BME280_temperature;BME280_humidity;BME280_pressure;Samples;Min_cycle;Max_cycle;Signal;HPM_P1;HPM_P2
2021/12/26 00:01:37;;;;;;;8.53;4.60;;;-3.90;99.90;;;;;;5092917;28;20221;-72
2021/12/26 00:04:04;;;;;;;10.30;4.77;;;-3.90;99.90;;;;;;5093028;28;20185;-72
2021/12/26 00:06:29;;;;;;;9.80;5.03;;;-4.00;99.90;;;;;;5111039;28;20591;-73
2021/12/26 00:08:56;;;;;;;10.00;4.30;;;-4.00;99.90;;;;;;5110977;28;20169;-73
2021/12/26 00:11:24;;;;;;;8.83;4.63;;;-4.00;99.90;;;;;;5110973;28;20540;-73
2021/12/26 00:13:50;;;;;;;10.03;4.80;;;-4.00;99.90;;;;;;5093072;28;20738;-73
2021/12/26 00:16:16;;;;;;;8.70;4.97;;;-4.10;99.90;;;;;;5113285;28;20265;-73
2021/12/26 00:18:45;;;;;;;7.40;4.70;;;-4.10;99.90;;;;;;5114614;28;20691;-73
2021/12/26 00:21:12;;;;;;;8.30;4.73;;;-4.10;99.90;;;;;;5096343;28;20208;-76
2021/12/26 00:23:38;;;;;;;8.83;4.63;;;-4.00;99.90;;;;;;5096260;28;20215;-73
2021/12/26 00:26:04;;;;;;;8.07;4.37;;;-4.10;99.90;;;;;;5096293;28;20173;-73
2021/12/26 00:28:29;;;;;;;9.87;5.00;;;-4.10;99.90;;;;;;5114734;28;20587;-73
2021/12/26 00:30:55;;;;;;;10.13;4.43;;;-4.10;99.90;;;;;;5114556;28;20251;-74
2021/12/26 00:33:21;;;;;;;10.33;4.40;;;-4.10;99.90;;;;;;5096408;28;20222;-73
2021/12/26 00:35:47;;;;;;;5.93;4.07;;;-4.10;99.90;;;;;;5096078;28;20202;-73
2021/12/26 00:38:13;;;;;;;10.00;4.40;;;-4.10;99.90;;;;;;5095915;28;20168;-73
2021/12/26 00:40:38;;;;;;;10.37;4.77;;;-4.20;99.90;;;;;;5095826;28;20212;-73
2021/12/26 00:43:04;;;;;;;6.47;4.10;;;-4.10;99.90;;;;;;5096183;28;20547;-75
2021/12/26 00:45:29;;;;;;;12.20;4.30;;;-4.10;99.90;;;;;;5096138;28;20549;-73
2021/12/26 00:47:55;;;;;;;7.83;4.50;;;-4.10;99.90;;;;;;5113942;28;20614;-73
2021/12/26 00:50:29;;;;;;;11.87;5.10;;;-4.10;99.90;;;;;;5095973;28;20184;-73
2021/12/26 00:52:55;;;;;;;9.93;4.80;;;-4.10;99.90;;;;;;5096044;28;20196;-73
2021/12/26 00:55:21;;;;;;;11.00;5.17;;;-4.10;99.90;;;;;;5095704;28;20175;-74
2021/12/26 00:57:47;;;;;;;10.83;5.17;;;-4.20;99.90;;;;;;5114317;28;20538;-75
2021/12/26 01:00:19;;;;;;;9.87;5.50;;;-4.20;99.90;;;;;;5114181;28;20188;-73
2021/12/26 01:02:46;;;;;;;8.70;5.00;;;-4.20;99.90;;;;;;5095948;28;20253;-75
2021/12/26 01:05:12;;;;;;;11.33;5.40;;;-4.20;99.90;;;;;;5095554;28;20189;-75
2021/12/26 01:07:56;;;;;;;11.33;5.87;;;-4.20;99.90;;;;;;5113910;28;20203;-78
2021/12/26 01:10:24;;;;;;;7.97;4.70;;;-4.20;99.90;;;;;;5095533;28;20180;-73
2021/12/26 01:12:51;;;;;;;10.47;5.37;;;-4.30;99.90;;;;;;5095825;28;20196;-76
2021/12/26 01:15:19;;;;;;;9.37;5.00;;;-4.30;99.90;;;;;;5095566;28;20168;-73
2021/12/26 01:17:45;;;;;;;11.50;5.97;;;-4.20;99.90;;;;;;5095543;28;20541;-75
2021/12/26 01:20:26;;;;;;;9.43;5.93;;;-4.20;99.90;;;;;;5095173;28;20218;-73
2021/12/26 01:22:52;;;;;;;10.00;5.63;;;-4.20;99.90;;;;;;5095209;28;20209;-73
2021/12/26 01:25:17;;;;;;;10.57;5.93;;;-4.20;99.90;;;;;;5095137;28;20578;-73
2021/12/26 01:27:43;;;;;;;12.07;5.53;;;-4.30;99.90;;;;;;5094413;28;20177;-73
2021/12/26 01:30:09;;;;;;;8.40;5.07;;;-4.30;99.90;;;;;;5094933;28;20175;-73
2021/12/26 01:32:34;;;;;;;9.30;4.83;;;-4.30;99.90;;;;;;5095126;28;20556;-75
2021/12/26 01:35:00;;;;;;;11.40;5.10;;;-4.30;99.90;;;;;;5095002;28;20181;-73
2021/12/26 01:37:25;;;;;;;9.47;5.53;;;-4.20;99.90;;;;;;5113427;28;20176;-76
2021/12/26 01:39:51;;;;;;;10.07;4.97;;;-4.20;99.90;;;;;;5094389;28;20193;-73
2021/12/26 01:42:17;;;;;;;8.90;4.57;;;-4.30;99.90;;;;;;5094964;28;20548;-73
2021/12/26 01:44:42;;;;;;;9.20;5.07;;;-4.20;99.90;;;;;;5113413;28;20165;-74
2021/12/26 01:47:09;;;;;;;7.17;4.17;;;-4.20;99.90;;;;;;5113275;28;20168;-73
2021/12/26 01:49:34;;;;;;;9.77;4.97;;;-4.30;99.90;;;;;;5113016;28;20169;-73
2021/12/26 01:52:03;;;;;;;11.23;5.13;;;-4.30;99.90;;;;;;5094592;28;20521;-73
2021/12/26 01:54:39;;;;;;;11.53;5.07;;;-4.20;99.90;;;;;;5094614;28;20304;-73
2021/12/26 01:57:10;;;;;;;8.10;5.50;;;-4.30;99.90;;;;;;5094523;28;20169;-73
2021/12/26 01:59:37;;;;;;;10.20;4.97;;;-4.30;99.90;;;;;;5109929;28;20286;-74
2021/12/26 02:02:03;;;;;;;11.10;5.50;;;-4.40;99.90;;;;;;5091632;28;20516;-75
2021/12/26 02:04:29;;;;;;;9.73;4.70;;;-4.40;99.90;;;;;;5092792;28;20573;-73
2021/12/26 02:06:59;;;;;;;8.47;4.90;;;-4.40;99.90;;;;;;5094218;28;20545;-74
2021/12/26 02:09:25;;;;;;;11.53;5.27;;;-4.40;99.90;;;;;;5094201;28;20173;-73
2021/12/26 02:11:52;;;;;;;8.97;5.33;;;-4.30;99.90;;;;;;5094188;28;20577;-74
2021/12/26 02:14:18;;;;;;;9.50;4.83;;;-4.50;99.90;;;;;;5094357;28;20201;-73
2021/12/26 02:16:44;;;;;;;9.77;5.07;;;-4.40;99.90;;;;;;5094195;28;20178;-73
2021/12/26 02:19:10;;;;;;;9.60;5.00;;;-4.40;99.90;;;;;;5093618;28;20175;-73
2021/12/26 02:21:59;;;;;;;8.57;5.50;;;-4.40;99.90;;;;;;5094552;28;20693;-73
2021/12/26 02:25:06;;;;;;;10.27;5.43;;;-4.50;99.90;;;;;;5094368;28;20256;-76
2021/12/26 02:27:32;;;;;;;9.50;4.80;;;-4.40;99.90;;;;;;5112346;28;20255;-73
2021/12/26 02:30:16;;;;;;;9.07;5.40;;;-4.40;99.90;;;;;;5093835;28;20176;-73
2021/12/26 02:32:44;;;;;;;10.60;4.43;;;-4.40;99.90;;;;;;5093988;28;20196;-73
2021/12/26 02:35:10;;;;;;;12.00;6.27;;;-4.40;99.90;;;;;;5093755;28;20239;-74
2021/12/26 02:37:35;;;;;;;7.27;4.50;;;-4.40;99.90;;;;;;5094111;28;20640;-73
2021/12/26 02:40:02;;;;;;;7.83;4.23;;;-4.50;99.90;;;;;;5093383;28;20211;-73
2021/12/26 02:42:28;;;;;;;9.17;4.77;;;-4.50;99.90;;;;;;5093680;28;20565;-76
2021/12/26 02:44:54;;;;;;;7.70;4.37;;;-4.50;99.90;;;;;;5093749;28;20174;-73
2021/12/26 02:47:50;;;;;;;11.23;5.40;;;-4.50;99.90;;;;;;5112058;28;20251;-73
2021/12/26 02:50:19;;;;;;;10.53;4.83;;;-4.50;99.90;;;;;;5072802;28;20206;-73
2021/12/26 02:52:46;;;;;;;11.33;4.80;;;-4.50;99.90;;;;;;5093482;28;20245;-76
2021/12/26 02:55:13;;;;;;;9.17;4.77;;;-4.50;99.90;;;;;;5093721;28;20516;-73
2021/12/26 02:57:40;;;;;;;8.17;5.13;;;-4.50;99.90;;;;;;5111947;28;20174;-73
2021/12/26 03:00:15;;;;;;;12.57;5.10;;;-4.50;99.90;;;;;;5093153;28;20199;-78
2021/12/26 03:02:56;;;;;;;6.90;4.20;;;-4.50;99.90;;;;;;5093200;28;20196;-75
2021/12/26 03:05:25;;;;;;;9.60;4.67;;;-4.50;99.90;;;;;;5093559;28;20240;-73
2021/12/26 03:07:51;;;;;;;10.03;4.87;;;-4.60;99.90;;;;;;5093596;28;20180;-73
2021/12/26 03:10:24;;;;;;;11.67;5.37;;;-4.60;99.90;;;;;;5111759;28;20509;-73
2021/12/26 03:12:52;;;;;;;10.97;5.07;;;-4.60;99.90;;;;;;5111749;28;20740;-73
2021/12/26 03:15:18;;;;;;;9.53;5.23;;;-4.60;99.90;;;;;;5093168;28;20209;-73
2021/12/26 03:17:43;;;;;;;8.83;5.07;;;-4.60;99.90;;;;;;5109689;28;20180;-76
2021/12/26 03:20:15;;;;;;;12.70;5.77;;;-4.60;99.90;;;;;;5093119;28;20298;-73
2021/12/26 03:22:41;;;;;;;11.00;5.77;;;-4.60;99.90;;;;;;5093077;28;20207;-73
2021/12/26 03:25:14;;;;;;;14.23;6.57;;;-4.60;99.90;;;;;;5111413;28;20168;-73
2021/12/26 03:27:40;;;;;;;12.67;5.70;;;-4.60;99.90;;;;;;5093359;28;20530;-73
2021/12/26 03:30:08;;;;;;;8.67;5.13;;;-4.60;99.90;;;;;;5092986;28;20177;-75
2021/12/26 03:32:33;;;;;;;9.67;5.47;;;-4.60;99.90;;;;;;5093416;28;20200;-73
2021/12/26 03:34:59;;;;;;;12.90;6.10;;;-4.60;99.90;;;;;;5093216;28;20257;-74
2021/12/26 03:37:25;;;;;;;8.93;5.47;;;-4.60;99.90;;;;;;5111314;28;20585;-73
2021/12/26 03:39:50;;;;;;;12.60;5.67;;;-4.70;99.90;;;;;;5092995;28;20200;-73
2021/12/26 03:42:21;;;;;;;12.00;5.87;;;-4.70;99.90;;;;;;5093107;28;20203;-72
2021/12/26 03:44:47;;;;;;;9.93;5.23;;;-4.60;99.90;;;;;;5093143;28;20562;-75
2021/12/26 03:47:13;;;;;;;10.30;5.70;;;-4.60;99.90;;;;;;5092997;28;20180;-75
2021/12/26 03:49:38;;;;;;;9.77;5.50;;;-4.60;99.90;;;;;;5092912;28;20182;-73
2021/12/26 03:52:04;;;;;;;9.93;6.10;;;-4.70;99.90;;;;;;5096650;28;20254;-73
2021/12/26 03:54:30;;;;;;;9.20;5.80;;;-4.80;99.90;;;;;;5097219;28;20177;-73
2021/12/26 03:56:55;;;;;;;11.00;5.13;;;-4.80;99.90;;;;;;5097010;28;20231;-75
2021/12/26 03:59:20;;;;;;;10.90;6.17;;;-4.80;99.90;;;;;;5096728;28;20198;-73
2021/12/26 04:01:46;;;;;;;11.33;5.43;;;-4.70;99.90;;;;;;5115760;28;20548;-73
2021/12/26 04:04:12;;;;;;;9.63;5.20;;;-4.70;99.90;;;;;;5115206;28;20185;-75
2021/12/26 04:06:37;;;;;;;11.63;6.43;;;-4.70;99.90;;;;;;5096821;28;20283;-73
2021/12/26 04:09:03;;;;;;;9.77;5.20;;;-4.80;99.90;;;;;;5114948;28;20560;-73
2021/12/26 04:11:29;;;;;;;9.43;5.50;;;-4.70;99.90;;;;;;5096657;28;20230;-74
2021/12/26 04:13:55;;;;;;;10.00;5.77;;;-4.70;99.90;;;;;;5115245;28;20380;-73
2021/12/26 04:16:20;;;;;;;11.97;6.30;;;-4.70;99.90;;;;;;5115020;28;20214;-73
2021/12/26 04:18:46;;;;;;;12.20;6.63;;;-4.70;99.90;;;;;;5115280;28;20205;-73
2021/12/26 04:21:11;;;;;;;12.47;6.97;;;-4.80;99.90;;;;;;5116011;28;20199;-73
2021/12/26 04:23:37;;;;;;;12.13;6.80;;;-4.80;99.90;;;;;;5097742;28;20217;-73
2021/12/26 04:26:02;;;;;;;10.80;6.43;;;-4.80;99.90;;;;;;5114625;28;20172;-72
2021/12/26 04:28:28;;;;;;;11.33;6.23;;;-4.80;99.90;;;;;;5096189;28;20242;-73
2021/12/26 04:30:54;;;;;;;15.20;7.13;;;-4.90;99.90;;;;;;5096395;28;20217;-73
2021/12/26 04:33:20;;;;;;;14.27;6.70;;;-4.90;99.90;;;;;;5096438;28;20243;-73
2021/12/26 04:35:46;;;;;;;12.07;6.73;;;-5.00;99.90;;;;;;5095966;28;20185;-73
2021/12/26 04:38:12;;;;;;;12.13;6.40;;;-4.90;99.90;;;;;;5096305;28;20172;-73
2021/12/26 04:40:37;;;;;;;13.23;7.37;;;-5.00;99.90;;;;;;5096106;28;20176;-73
2021/12/26 04:43:03;;;;;;;14.00;7.13;;;-5.00;99.90;;;;;;5114328;28;20203;-73
2021/12/26 04:45:29;;;;;;;11.50;6.10;;;-5.00;99.90;;;;;;5096188;28;20186;-73
2021/12/26 04:47:54;;;;;;;10.77;6.20;;;-5.00;99.90;;;;;;5114139;28;20188;-73
2021/12/26 04:50:23;;;;;;;13.40;6.13;;;-4.90;99.90;;;;;;5095729;28;20305;-73
2021/12/26 04:52:51;;;;;;;11.17;5.57;;;-5.00;99.90;;;;;;5095658;28;20206;-73
2021/12/26 04:55:20;;;;;;;13.10;6.13;;;-5.00;99.90;;;;;;5095864;28;20221;-73
2021/12/26 04:57:47;;;;;;;10.27;5.47;;;-5.00;99.90;;;;;;5095717;28;20187;-72
2021/12/26 05:00:16;;;;;;;16.63;7.57;;;-4.90;99.90;;;;;;5095745;28;20186;-73
2021/12/26 05:02:42;;;;;;;11.80;6.20;;;-5.00;99.90;;;;;;5094726;28;20511;-73
2021/12/26 05:05:09;;;;;;;11.87;6.47;;;-5.00;99.90;;;;;;5095755;28;20178;-73
2021/12/26 05:07:35;;;;;;;11.63;6.37;;;-5.10;99.90;;;;;;5095699;28;20175;-73
2021/12/26 05:10:01;;;;;;;14.93;6.30;;;-5.00;99.90;;;;;;5113791;28;20195;-73
2021/12/26 05:12:27;;;;;;;14.47;6.73;;;-5.00;99.90;;;;;;5095408;28;20209;-73
2021/12/26 05:14:53;;;;;;;10.03;6.20;;;-5.10;99.90;;;;;;5095853;28;20172;-73
2021/12/26 05:17:18;;;;;;;13.40;6.67;;;-5.10;99.90;;;;;;5095348;28;20203;-73
2021/12/26 05:19:44;;;;;;;10.93;6.07;;;-5.00;99.90;;;;;;5095253;28;20191;-73
2021/12/26 05:22:09;;;;;;;10.97;5.93;;;-5.10;99.90;;;;;;5113267;28;20189;-73
2021/12/26 05:24:35;;;;;;;14.10;6.07;;;-5.10;99.90;;;;;;5095842;28;20184;-73
2021/12/26 05:27:01;;;;;;;12.43;6.97;;;-5.20;99.90;;;;;;5095135;28;20233;-73
2021/12/26 05:29:27;;;;;;;13.37;6.57;;;-5.20;99.90;;;;;;5095052;28;20256;-73
2021/12/26 05:31:53;;;;;;;13.13;6.97;;;-5.30;99.90;;;;;;5095343;28;20195;-73
2021/12/26 05:34:19;;;;;;;12.77;6.93;;;-5.30;99.90;;;;;;5113252;28;20187;-73
2021/12/26 05:36:45;;;;;;;11.97;6.37;;;-5.30;99.90;;;;;;5113203;28;20194;-73
2021/12/26 05:39:11;;;;;;;10.00;5.97;;;-5.40;99.90;;;;;;5094675;28;20205;-72
2021/12/26 05:41:36;;;;;;;14.03;6.87;;;-5.40;99.90;;;;;;5094957;28;20197;-73
2021/12/26 05:44:02;;;;;;;16.23;6.83;;;-5.40;99.90;;;;;;5114826;28;20258;-73
2021/12/26 05:46:28;;;;;;;14.30;6.90;;;-5.40;99.90;;;;;;5114727;28;20169;-73
2021/12/26 05:48:53;;;;;;;14.33;6.10;;;-5.40;99.90;;;;;;5094718;28;20186;-73
2021/12/26 05:51:19;;;;;;;9.43;6.17;;;-5.40;99.90;;;;;;5094800;28;20202;-73
2021/12/26 05:53:45;;;;;;;14.27;6.80;;;-5.40;99.90;;;;;;5113213;28;20599;-73
2021/12/26 05:56:10;;;;;;;11.67;6.23;;;-5.40;99.90;;;;;;5094708;28;20211;-73
2021/12/26 05:58:36;;;;;;;16.47;8.00;;;-5.50;99.90;;;;;;5094962;28;20162;-72
2021/12/26 06:01:02;;;;;;;12.93;5.90;;;-5.50;99.90;;;;;;5094838;28;20233;-73
2021/12/26 06:03:27;;;;;;;14.43;6.43;;;-5.60;99.90;;;;;;5112921;28;20549;-73
2021/12/26 06:05:53;;;;;;;16.10;6.43;;;-5.60;99.90;;;;;;5094495;28;20177;-73
2021/12/26 06:08:18;;;;;;;14.37;6.90;;;-5.60;99.90;;;;;;5094005;28;20178;-73
2021/12/26 06:10:44;;;;;;;16.33;7.07;;;-5.60;99.90;;;;;;5094266;28;20690;-72
2021/12/26 06:13:10;;;;;;;12.00;6.90;;;-5.50;99.90;;;;;;5112437;28;20235;-73
2021/12/26 06:15:35;;;;;;;12.17;6.87;;;-5.60;99.90;;;;;;5112883;28;20174;-73
2021/12/26 06:18:01;;;;;;;12.70;5.83;;;-5.60;99.90;;;;;;5094004;28;20169;-72
2021/12/26 06:20:27;;;;;;;11.17;6.27;;;-5.60;99.90;;;;;;5093954;28;20701;-72
2021/12/26 06:22:52;;;;;;;13.80;7.13;;;-5.60;99.90;;;;;;5112528;28;20769;-73
2021/12/26 06:25:18;;;;;;;12.23;7.00;;;-5.60;99.90;;;;;;5112540;28;20174;-73
2021/12/26 06:27:44;;;;;;;11.83;5.93;;;-5.60;99.90;;;;;;5093780;28;20174;-72
2021/12/26 06:30:10;;;;;;;9.57;5.30;;;-5.60;99.90;;;;;;5094079;28;20195;-73
2021/12/26 06:32:36;;;;;;;12.77;5.80;;;-5.70;99.90;;;;;;5112229;28;20189;-73
2021/12/26 06:35:02;;;;;;;14.30;6.47;;;-5.70;99.90;;;;;;5094168;28;20192;-73
2021/12/26 06:37:28;;;;;;;19.23;5.97;;;-5.70;99.90;;;;;;5112034;28;20180;-73
2021/12/26 06:39:54;;;;;;;12.07;6.33;;;-5.70;99.90;;;;;;5093616;28;20180;-73
2021/12/26 06:42:20;;;;;;;10.87;5.47;;;-5.70;99.90;;;;;;5093693;28;20194;-72
2021/12/26 06:44:45;;;;;;;13.90;6.73;;;-5.80;99.90;;;;;;5093828;28;20586;-73
2021/12/26 06:47:11;;;;;;;11.47;6.53;;;-5.80;99.90;;;;;;5093835;28;20266;-72
2021/12/26 06:49:37;;;;;;;9.53;5.90;;;-5.80;99.90;;;;;;5093127;28;20202;-73
2021/12/26 06:52:04;;;;;;;13.07;5.93;;;-5.80;99.90;;;;;;5111884;28;20840;-72
2021/12/26 06:54:30;;;;;;;10.13;5.73;;;-5.70;99.90;;;;;;5093759;28;20174;-72
2021/12/26 06:56:55;;;;;;;10.57;6.37;;;-5.80;99.90;;;;;;5093481;28;20177;-73
2021/12/26 06:59:21;;;;;;;11.67;6.40;;;-5.80;99.90;;;;;;5093535;28;20525;-72
2021/12/26 07:01:47;;;;;;;13.57;6.47;;;-5.70;99.90;;;;;;5112016;28;20166;-72
2021/12/26 07:04:12;;;;;;;14.50;5.63;;;-5.70;99.90;;;;;;5093583;28;20707;-73
2021/12/26 07:06:38;;;;;;;16.63;7.17;;;-5.70;99.90;;;;;;5093438;28;20623;-72
2021/12/26 07:09:04;;;;;;;13.90;6.27;;;-5.80;99.90;;;;;;5093195;28;20188;-73
2021/12/26 07:11:30;;;;;;;19.20;7.20;;;-5.70;99.90;;;;;;5093216;28;20672;-73
2021/12/26 07:13:56;;;;;;;26.50;12.03;;;-5.70;99.90;;;;;;5093557;28;20268;-73
2021/12/26 07:16:23;;;;;;;15.60;7.47;;;-5.70;99.90;;;;;;5093380;28;20633;-73
2021/12/26 07:18:50;;;;;;;15.73;6.30;;;-5.70;99.90;;;;;;5093373;28;20170;-72
2021/12/26 07:21:16;;;;;;;17.00;7.07;;;-5.70;99.90;;;;;;5093212;28;20185;-72
2021/12/26 07:23:42;;;;;;;17.03;6.70;;;-5.70;99.90;;;;;;5111460;28;20202;-72
2021/12/26 07:26:08;;;;;;;14.10;6.50;;;-5.60;99.90;;;;;;5092291;28;20176;-73
2021/12/26 07:28:33;;;;;;;14.80;7.50;;;-5.60;99.90;;;;;;5111367;28;20181;-72
2021/12/26 07:30:59;;;;;;;16.27;7.67;;;-5.60;99.90;;;;;;5111271;28;20427;-73
2021/12/26 07:33:25;;;;;;;15.67;7.77;;;-5.60;99.90;;;;;;5092987;28;20307;-73
2021/12/26 07:35:50;;;;;;;12.83;6.97;;;-5.60;99.90;;;;;;5111424;28;20598;-73
2021/12/26 07:38:18;;;;;;;13.07;6.90;;;-5.60;99.90;;;;;;5093128;28;20170;-73
2021/12/26 07:40:45;;;;;;;14.50;7.23;;;-5.50;99.90;;;;;;5111325;28;20651;-73
2021/12/26 07:43:10;;;;;;;13.57;7.30;;;-5.50;99.90;;;;;;5093220;28;20202;-73
2021/12/26 07:45:36;;;;;;;14.63;6.80;;;-5.60;99.90;;;;;;5092976;28;20600;-72
2021/12/26 07:48:02;;;;;;;14.57;7.80;;;-5.50;99.90;;;;;;5092903;28;20204;-72
2021/12/26 07:50:28;;;;;;;11.97;6.90;;;-5.60;99.90;;;;;;5111236;28;20225;-72
2021/12/26 07:52:54;;;;;;;16.07;7.73;;;-5.60;99.90;;;;;;5093010;28;20193;-72
2021/12/26 07:55:19;;;;;;;17.07;8.27;;;-5.60;99.90;;;;;;5092975;28;20174;-72
2021/12/26 07:57:48;;;;;;;15.07;7.50;;;-5.70;99.90;;;;;;5092641;28;20178;-72
2021/12/26 08:00:15;;;;;;;13.20;7.40;;;-5.80;99.90;;;;;;5092989;28;20179;-72
2021/12/26 08:02:41;;;;;;;18.53;7.30;;;-5.80;99.90;;;;;;5092655;28;20190;-73
2021/12/26 08:05:07;;;;;;;14.87;7.53;;;-5.70;99.90;;;;;;5111520;28;20178;-72
2021/12/26 08:07:34;;;;;;;13.43;7.43;;;-5.70;99.90;;;;;;5092458;28;20179;-72
2021/12/26 08:10:00;;;;;;;12.77;6.87;;;-5.70;99.90;;;;;;5092558;28;20213;-72
2021/12/26 08:12:25;;;;;;;12.97;6.83;;;-5.60;99.90;;;;;;5110844;28;20634;-73
2021/12/26 08:14:51;;;;;;;11.40;5.83;;;-5.60;99.90;;;;;;5111097;28;20669;-73
2021/12/26 08:17:16;;;;;;;14.27;7.00;;;-5.60;99.90;;;;;;5092601;28;20174;-73
2021/12/26 08:19:42;;;;;;;13.97;6.77;;;-5.60;99.90;;;;;;5092515;28;20173;-72
2021/12/26 08:22:07;;;;;;;13.07;6.33;;;-5.50;99.90;;;;;;5092361;28;20561;-72
2021/12/26 08:24:33;;;;;;;9.13;5.23;;;-5.40;99.90;;;;;;5092447;28;20169;-73
2021/12/26 08:26:59;;;;;;;10.53;5.67;;;-5.30;99.90;;;;;;5110777;28;20171;-73
2021/12/26 08:29:24;;;;;;;9.93;5.53;;;-5.20;99.90;;;;;;5092241;28;20257;-72
2021/12/26 08:31:53;;;;;;;50.33;25.27;;;-5.20;99.90;;;;;;5092479;28;20534;-73
2021/12/26 08:34:21;;;;;;;15.30;5.93;;;-5.00;99.90;;;;;;5092737;28;20221;-72
2021/12/26 08:37:00;;;;;;;10.53;6.03;;;-5.00;99.90;;;;;;5094023;28;20171;-72
2021/12/26 08:39:27;;;;;;;10.63;5.73;;;-4.90;99.90;;;;;;5095896;28;20170;-72
2021/12/26 08:41:53;;;;;;;13.70;6.37;;;-4.90;99.90;;;;;;5096017;28;20169;-74
2021/12/26 08:44:19;;;;;;;11.57;5.90;;;-4.60;99.90;;;;;;5096272;28;20182;-73
2021/12/26 08:46:45;;;;;;;13.43;6.70;;;-4.50;99.90;;;;;;5096048;28;20181;-73
2021/12/26 08:49:11;;;;;;;13.00;6.13;;;-4.10;99.90;;;;;;5111455;28;20588;-74
2021/12/26 08:51:37;;;;;;;13.40;6.57;;;-3.70;99.90;;;;;;5093343;28;20208;-74
2021/12/26 08:54:03;;;;;;;12.57;5.57;;;-3.40;99.90;;;;;;5093843;28;20335;-73
2021/12/26 08:56:29;;;;;;;11.10;5.23;;;-3.60;99.90;;;;;;5095500;28;20176;-74
2021/12/26 08:58:55;;;;;;;11.50;5.97;;;-3.50;99.90;;;;;;5095839;28;20162;-74
2021/12/26 09:01:20;;;;;;;12.07;6.43;;;-3.40;99.90;;;;;;5095784;28;20172;-73
2021/12/26 09:03:46;;;;;;;10.73;6.33;;;-3.20;99.90;;;;;;5114111;28;20202;-74
2021/12/26 09:06:11;;;;;;;14.33;5.80;;;-3.30;99.90;;;;;;5095776;28;20178;-74
2021/12/26 09:08:37;;;;;;;9.83;5.13;;;-3.60;99.90;;;;;;5095543;28;20526;-74
2021/12/26 09:11:02;;;;;;;14.97;5.97;;;-4.00;99.90;;;;;;5095431;28;20291;-73
2021/12/26 09:13:28;;;;;;;12.90;6.60;;;-4.20;99.90;;;;;;5114011;28;20538;-74
2021/12/26 09:15:54;;;;;;;16.53;6.50;;;-4.20;99.90;;;;;;5113825;28;20166;-74
2021/12/26 09:18:19;;;;;;;14.30;7.07;;;-4.40;99.90;;;;;;5095318;28;20167;-74
2021/12/26 09:20:45;;;;;;;16.07;7.70;;;-4.50;99.90;;;;;;5095427;28;20228;-73
2021/12/26 09:23:10;;;;;;;14.67;7.30;;;-4.50;99.90;;;;;;5095175;28;20226;-74
2021/12/26 09:25:36;;;;;;;14.37;7.37;;;-4.50;99.90;;;;;;5113628;28;20177;-74
2021/12/26 09:28:02;;;;;;;17.60;8.07;;;-4.40;99.90;;;;;;5095017;28;20357;-73
2021/12/26 09:30:27;;;;;;;14.07;8.77;;;-4.40;99.90;;;;;;5113425;28;20509;-74
2021/12/26 09:32:53;;;;;;;17.47;9.23;;;-4.50;99.90;;;;;;5113413;28;20188;-74
2021/12/26 09:35:18;;;;;;;16.17;9.47;;;-4.40;99.90;;;;;;5095404;28;20165;-74
2021/12/26 09:37:44;;;;;;;14.80;8.87;;;-4.40;99.90;;;;;;5094733;28;20185;-73
2021/12/26 09:40:12;;;;;;;15.37;8.53;;;-4.30;99.90;;;;;;5094992;28;20182;-74
2021/12/26 09:42:38;;;;;;;19.17;9.37;;;-4.30;99.90;;;;;;5113302;28;20203;-73
2021/12/26 09:45:08;;;;;;;19.23;9.17;;;-4.30;99.90;;;;;;5096068;28;20201;-73
2021/12/26 09:47:35;;;;;;;18.37;9.50;;;-4.30;99.90;;;;;;5094610;28;20179;-73
2021/12/26 09:50:02;;;;;;;17.57;10.07;;;-4.20;99.90;;;;;;5094469;28;20201;-73
2021/12/26 09:52:27;;;;;;;18.07;9.03;;;-4.00;99.90;;;;;;5094608;28;20755;-73
2021/12/26 09:54:53;;;;;;;16.70;9.57;;;-3.70;99.90;;;;;;5113194;28;20170;-73
2021/12/26 09:57:18;;;;;;;17.53;9.10;;;-3.40;99.90;;;;;;5094750;28;20417;-73
2021/12/26 09:59:47;;;;;;;19.83;9.33;;;-3.20;99.90;;;;;;5094540;28;20199;-73
2021/12/26 10:02:15;;;;;;;21.87;9.97;;;-3.10;99.90;;;;;;5094430;28;20179;-73
2021/12/26 10:04:43;;;;;;;17.47;8.43;;;-2.90;99.90;;;;;;5094911;28;20194;-74
2021/12/26 10:07:15;;;;;;;17.40;9.07;;;-2.50;99.90;;;;;;5112716;28;20568;-74
2021/12/26 10:09:47;;;;;;;20.13;9.40;;;-2.50;99.90;;;;;;5112677;28;20504;-74
2021/12/26 10:12:14;;;;;;;19.40;9.67;;;-2.20;99.90;;;;;;5094378;28;20184;-74
2021/12/26 10:14:46;;;;;;;14.97;7.53;;;-2.20;99.90;;;;;;5094314;28;20187;-74
2021/12/26 10:17:23;;;;;;;12.70;7.83;;;-2.10;99.90;;;;;;5094519;28;20590;-74
2021/12/26 10:19:49;;;;;;;17.63;8.87;;;-2.10;99.90;;;;;;5094123;28;20258;-74
2021/12/26 10:22:17;;;;;;;13.27;7.63;;;-1.90;99.90;;;;;;5112507;28;20592;-74
2021/12/26 10:24:49;;;;;;;15.87;7.87;;;-1.80;99.90;;;;;;5106824;22;20229;-70
2021/12/26 10:27:29;;;;;;;13.70;7.73;;;-1.90;99.90;;;;;;5073823;28;20182;-70
2021/12/26 10:29:57;;;;;;;14.53;7.67;;;-2.00;99.90;;;;;;5074404;28;20197;-70
2021/12/26 10:32:36;;;;;;;15.03;7.93;;;-2.00;99.90;;;;;;5091292;28;20212;-67
2021/12/26 10:35:08;;;;;;;10.70;6.70;;;-1.90;99.90;;;;;;5092169;28;20196;-69
2021/12/26 10:37:46;;;;;;;10.07;6.73;;;-2.00;99.90;;;;;;5090665;28;20273;-69
2021/12/26 10:40:24;;;;;;;18.40;7.30;;;-2.00;99.90;;;;;;5090995;28;20216;-69
2021/12/26 10:42:57;;;;;;;11.87;6.57;;;-2.10;99.90;;;;;;5090694;28;20181;-70
2021/12/26 10:45:31;;;;;;;12.67;6.33;;;-2.10;99.90;;;;;;5092258;28;20638;-70
2021/12/26 10:48:03;;;;;;;11.33;5.97;;;-1.90;99.90;;;;;;5091256;28;20271;-69
2021/12/26 10:50:31;;;;;;;9.40;5.33;;;-1.70;99.90;;;;;;5092116;28;20677;-70
2021/12/26 10:52:59;;;;;;;9.90;6.73;;;-1.60;99.90;;;;;;5091941;28;20174;-70
2021/12/26 10:55:37;;;;;;;13.10;7.27;;;-1.40;99.90;;;;;;5091608;28;20176;-70
2021/12/26 10:58:17;;;;;;;11.40;7.17;;;-1.20;99.90;;;;;;5090356;28;20261;-72
2021/12/26 11:00:56;;;;;;;15.57;8.03;;;-1.10;99.90;;;;;;5089562;28;20174;-70
2021/12/26 11:03:24;;;;;;;10.97;7.00;;;-1.10;99.90;;;;;;5091750;28;20225;-70
2021/12/26 11:05:55;;;;;;;12.57;7.10;;;-1.20;99.90;;;;;;5091693;28;20690;-70
2021/12/26 11:08:30;;;;;;;12.90;6.83;;;-1.30;99.90;;;;;;5091558;28;20173;-69
2021/12/26 11:10:58;;;;;;;13.07;6.97;;;-1.20;99.90;;;;;;5089869;28;20218;-70
2021/12/26 11:13:29;;;;;;;13.43;7.40;;;-1.30;99.90;;;;;;5091684;28;20493;-69
2021/12/26 11:15:58;;;;;;;12.33;6.30;;;-1.20;99.90;;;;;;5091542;28;20230;-69
2021/12/26 11:18:24;;;;;;;11.07;7.20;;;-1.30;99.90;;;;;;5091512;28;20631;-70
2021/12/26 11:20:53;;;;;;;12.50;7.37;;;-1.40;99.90;;;;;;5091415;28;20178;-70
2021/12/26 11:23:25;;;;;;;13.37;7.40;;;-1.30;99.90;;;;;;5090373;28;20334;-70
2021/12/26 11:26:13;;;;;;;10.23;6.33;;;-1.40;99.90;;;;;;5090425;28;20182;-70
2021/12/26 11:28:41;;;;;;;10.77;6.30;;;-1.30;99.90;;;;;;5091473;28;20689;-70
2021/12/26 11:31:11;;;;;;;13.33;6.47;;;-1.30;99.90;;;;;;5089764;28;20421;-69
2021/12/26 11:33:37;;;;;;;11.63;6.47;;;-1.40;99.90;;;;;;5091513;28;20182;-70
2021/12/26 11:36:05;;;;;;;12.30;6.40;;;-1.30;99.90;;;;;;5089777;28;20544;-68
2021/12/26 11:38:32;;;;;;;11.93;5.93;;;-1.10;99.90;;;;;;5089978;28;20347;-69
2021/12/26 11:41:04;;;;;;;10.57;5.93;;;-1.30;99.90;;;;;;5089691;28;20551;-71
2021/12/26 11:43:52;;;;;;;9.77;5.23;;;-1.20;99.90;;;;;;5091125;28;20653;-72
2021/12/26 11:46:54;;;;;;;10.60;5.23;;;-1.00;99.90;;;;;;5090006;28;20187;-70
2021/12/26 11:49:44;;;;;;;8.17;5.20;;;-1.10;99.90;;;;;;5089888;28;20601;-70
2021/12/26 11:52:18;;;;;;;10.60;5.20;;;-1.30;99.90;;;;;;5089998;28;20513;-70
2021/12/26 11:55:13;;;;;;;9.70;5.67;;;-1.20;99.90;;;;;;5089812;28;20288;-70
2021/12/26 11:57:51;;;;;;;8.80;5.50;;;-1.30;99.90;;;;;;5066270;28;20180;-70
2021/12/26 12:00:24;;;;;;;11.60;5.67;;;-1.20;99.90;;;;;;5089954;28;20204;-70
2021/12/26 12:02:52;;;;;;;9.87;5.87;;;-1.30;99.90;;;;;;5091039;28;20266;-70
2021/12/26 12:05:22;;;;;;;10.70;6.07;;;-1.20;99.90;;;;;;5091132;28;20616;-70
2021/12/26 12:07:49;;;;;;;8.60;5.30;;;-1.20;99.90;;;;;;5089519;28;20201;-70
2021/12/26 12:10:38;;;;;;;11.40;6.03;;;-1.10;99.90;;;;;;5089811;28;20186;-70
2021/12/26 12:13:05;;;;;;;9.73;5.90;;;-1.30;99.90;;;;;;5093325;28;20700;-70
2021/12/26 12:15:54;;;;;;;10.63;5.60;;;-1.40;99.90;;;;;;5093962;28;20585;-70
2021/12/26 12:18:30;;;;;;;11.30;5.83;;;-1.30;99.90;;;;;;5093383;28;20166;-70
2021/12/26 12:21:18;;;;;;;12.27;5.30;;;-1.40;99.90;;;;;;5093507;28;20172;-71
2021/12/26 12:24:02;;;;;;;10.43;5.20;;;-1.40;99.90;;;;;;5093304;28;20271;-70
2021/12/26 12:26:48;;;;;;;14.33;6.13;;;-1.40;99.90;;;;;;5093256;28;20223;-70
2021/12/26 12:29:29;;;;;;;11.57;5.40;;;-1.30;99.90;;;;;;5093251;28;20174;-70
2021/12/26 12:32:07;;;;;;;10.93;4.83;;;-1.30;99.90;;;;;;5094699;28;20178;-71
2021/12/26 12:34:51;;;;;;;8.93;4.70;;;-1.40;99.90;;;;;;5094658;28;20600;-70
2021/12/26 12:37:33;;;;;;;8.80;5.00;;;-1.50;99.90;;;;;;5094802;28;20541;-70
2021/12/26 12:40:28;;;;;;;8.67;4.50;;;-1.40;99.90;;;;;;5092745;28;20254;-70
2021/12/26 12:43:05;;;;;;;8.70;4.67;;;-1.50;99.90;;;;;;5092826;28;20178;-70
2021/12/26 12:45:59;;;;;;;6.67;3.90;;;-1.40;99.90;;;;;;5093189;28;20173;-70